createdAt,value
2022-09-09T00:00:55.713Z,98.18
2022-09-09T00:04:00.478Z,98.95
2022-09-09T00:07:06.882Z,99.48
2022-09-09T00:10:17.940Z,99.76
2022-09-09T00:13:26.248Z,98.10
2022-09-09T00:16:42.774Z,99.07
2022-09-09T00:19:57.238Z,100.00
2022-09-09T00:23:12.702Z,100.00
2022-09-09T00:26:32.841Z,100.00
2022-09-09T00:29:56.355Z,100.00
2022-09-09T00:33:14.086Z,99.77
2022-09-09T00:36:41.688Z,98.73
2022-09-09T00:40:08.437Z,99.15
2022-09-09T00:43:22.795Z,98.68
2022-09-09T00:46:55.787Z,97.82
2022-09-09T00:50:34.019Z,93.79
2022-09-09T00:54:07.448Z,93.21
2022-09-09T00:57:31.253Z,95.31
2022-09-09T01:00:43.299Z,96.73
2022-09-09T01:04:11.109Z,98.54
2022-09-09T01:07:20.495Z,100.00
2022-09-09T01:10:54.417Z,100.00
2022-09-09T01:14:32.857Z,100.00
2022-09-09T01:18:02.687Z,100.00
2022-09-09T01:21:36.503Z,100.00
2022-09-09T01:25:07.436Z,100.00
2022-09-09T01:28:29.869Z,100.00
2022-09-09T01:31:59.045Z,99.75
2022-09-09T01:35:22.126Z,100.00
2022-09-09T01:38:39.733Z,100.00
2022-09-09T01:41:51.838Z,100.00
2022-09-09T01:45:13.457Z,100.00
2022-09-09T01:48:15.688Z,100.00
2022-09-09T01:51:26.844Z,100.00
2022-09-09T01:54:37.689Z,100.00
2022-09-09T01:58:38.584Z,100.00
2022-09-09T02:02:39.097Z,100.00
2022-09-09T02:06:06.743Z,100.00
2022-09-09T02:09:18.189Z,100.00
2022-09-09T02:12:22.279Z,100.00
2022-09-09T02:15:59.613Z,100.00
2022-09-09T02:19:08.670Z,100.00
2022-09-09T02:22:27.542Z,100.00
2022-09-09T02:25:33.010Z,100.00
2022-09-09T02:28:44.902Z,100.00
2022-09-09T02:31:50.199Z,100.00
2022-09-09T02:35:05.629Z,100.00
2022-09-09T02:38:11.959Z,100.00
2022-09-09T02:41:15.936Z,100.00
2022-09-09T02:44:19.514Z,100.00
2022-09-09T02:47:31.306Z,100.00
2022-09-09T02:50:52.684Z,100.00
2022-09-09T02:54:00.408Z,100.00
2022-09-09T02:57:15.464Z,100.00
2022-09-09T03:00:25.574Z,100.00
2022-09-09T03:03:28.293Z,100.00
2022-09-09T03:06:31.917Z,100.00
2022-09-09T03:09:43.150Z,100.00
2022-09-09T03:12:45.899Z,99.22
2022-09-09T03:15:49.825Z,98.32
2022-09-09T03:18:56.128Z,99.47
2022-09-09T03:21:59.401Z,97.06
2022-09-09T03:25:02.078Z,95.98
2022-09-09T03:28:07.274Z,95.19
2022-09-09T03:31:11.705Z,94.49
2022-09-09T03:34:20.433Z,93.82
2022-09-09T03:37:23.888Z,94.46
2022-09-09T03:40:27.324Z,94.67
2022-09-09T03:43:30.838Z,93.99
2022-09-09T03:46:36.803Z,94.00
2022-09-09T03:50:36.804Z,94.05
2022-09-09T03:54:01.187Z,93.74
2022-09-09T04:06:32.977Z,94.73
2022-09-09T04:10:14.336Z,93.50
2022-09-09T04:13:41.490Z,94.29
2022-09-09T04:17:11.403Z,94.00
2022-09-09T04:20:56.123Z,94.51
2022-09-09T04:24:01.326Z,93.59
2022-09-09T04:27:03.678Z,92.07
2022-09-09T04:30:20.390Z,91.79
2022-09-09T04:34:29.983Z,91.83
2022-09-09T04:41:59.560Z,90.66
2022-09-09T04:48:47.175Z,90.56
2022-09-09T04:52:15.392Z,89.82
2022-09-09T05:00:22.032Z,90.40
2022-09-09T05:03:26.381Z,91.74
2022-09-09T05:06:35.714Z,94.49
2022-09-09T05:09:44.415Z,96.69
2022-09-09T05:13:05.937Z,96.47
2022-09-09T05:16:08.049Z,95.41
2022-09-09T05:19:10.201Z,95.66
2022-09-09T05:22:24.282Z,95.01
2022-09-09T05:25:28.763Z,93.51
2022-09-09T05:28:32.272Z,93.40
2022-09-09T05:31:35.117Z,93.16
2022-09-09T05:34:40.571Z,94.13
2022-09-09T05:37:42.750Z,93.78
2022-09-09T05:40:49.287Z,94.54
2022-09-09T05:43:51.760Z,94.11
2022-09-09T05:46:53.899Z,93.88
2022-09-09T05:49:56.482Z,93.65
2022-09-09T05:52:58.915Z,93.43
2022-09-09T05:56:11.292Z,93.54
2022-09-09T05:59:13.659Z,94.15
2022-09-09T06:02:15.685Z,92.86
2022-09-09T06:05:17.690Z,92.89
2022-09-09T06:08:19.742Z,93.01
2022-09-09T06:11:24.121Z,92.64
2022-09-09T06:14:28.407Z,92.38
2022-09-09T06:17:50.778Z,91.89
2022-09-09T06:21:12.488Z,92.03
2022-09-09T06:24:25.805Z,92.28
2022-09-09T06:27:31.873Z,92.41
2022-09-09T06:30:36.242Z,91.61
2022-09-09T06:33:42.292Z,92.45
2022-09-09T06:36:45.451Z,92.31
2022-09-09T06:39:47.951Z,91.74
2022-09-09T06:42:50.101Z,91.70
2022-09-09T06:46:23.253Z,90.14
2022-09-09T06:49:26.741Z,90.56
2022-09-09T06:52:29.567Z,89.73
2022-09-09T06:55:32.458Z,89.39
2022-09-09T06:58:35.700Z,87.96
2022-09-09T07:01:43.268Z,86.18
2022-09-09T07:04:48.085Z,85.02
2022-09-09T07:07:50.475Z,85.14
2022-09-09T07:10:55.155Z,83.48
2022-09-09T07:13:59.311Z,85.09
2022-09-09T07:17:01.688Z,85.13
2022-09-09T07:20:09.241Z,85.20
2022-09-09T07:23:14.438Z,84.92
2022-09-09T07:26:21.639Z,83.68
2022-09-09T07:29:32.984Z,81.87
2022-09-09T07:33:13.878Z,83.19
2022-09-09T07:36:55.346Z,83.05
2022-09-09T07:40:30.763Z,81.11
2022-09-09T07:43:58.052Z,81.73
2022-09-09T07:47:19.689Z,81.30
2022-09-09T07:50:34.060Z,80.68
2022-09-09T07:54:34.114Z,80.75
2022-09-09T07:58:38.551Z,78.03
2022-09-09T08:01:58.412Z,77.67
2022-09-09T08:05:08.486Z,76.07
2022-09-09T08:08:13.452Z,75.29
2022-09-09T08:11:19.653Z,77.40
2022-09-09T08:14:21.662Z,76.09
2022-09-09T08:17:25.475Z,78.16
2022-09-09T08:20:29.175Z,76.79
2022-09-09T08:23:31.887Z,75.85
2022-09-09T08:26:36.794Z,73.81
2022-09-09T08:29:48.800Z,75.33
2022-09-09T08:32:53.939Z,73.53
2022-09-09T08:39:37.646Z,72.09
2022-09-09T08:43:22.565Z,72.26
2022-09-09T08:47:06.537Z,72.43
2022-09-09T08:50:24.826Z,72.00
2022-09-09T08:53:39.759Z,69.04
2022-09-09T08:56:41.650Z,69.72
2022-09-09T08:59:43.750Z,71.33
2022-09-09T09:03:12.161Z,71.69
2022-09-09T09:06:32.259Z,71.39
2022-09-09T09:09:44.660Z,71.02
2022-09-09T09:12:48.695Z,70.03
2022-09-09T09:16:03.977Z,70.68
2022-09-09T09:19:11.179Z,70.04
2022-09-09T09:22:23.540Z,68.19
2022-09-09T09:25:36.693Z,68.70
2022-09-09T09:28:43.397Z,67.67
2022-09-09T09:31:55.847Z,64.54
2022-09-09T09:34:59.923Z,65.79
2022-09-09T09:41:41.216Z,64.71
2022-09-09T09:44:44.934Z,63.43
2022-09-09T09:48:07.945Z,62.04
2022-09-09T09:51:17.209Z,62.72
2022-09-09T09:54:30.819Z,59.64
2022-09-09T09:57:39.629Z,61.52
2022-09-09T10:00:52.482Z,57.85
2022-09-09T10:04:03.621Z,59.03
2022-09-09T10:07:17.403Z,58.23
2022-09-09T10:10:28.185Z,56.63
2022-09-09T10:13:53.902Z,55.46
2022-09-09T10:17:18.163Z,55.18
2022-09-09T10:20:34.119Z,54.69
2022-09-09T10:23:54.627Z,53.36
2022-09-09T10:27:32.473Z,54.76
2022-09-09T10:30:49.108Z,54.82
2022-09-09T10:33:55.034Z,54.53
2022-09-09T10:36:56.833Z,54.92
2022-09-09T10:40:27.700Z,51.76
2022-09-09T10:44:08.501Z,51.00
2022-09-09T10:47:10.266Z,50.63
2022-09-09T10:50:57.062Z,50.95
2022-09-09T10:54:27.665Z,51.65
2022-09-09T10:57:40.698Z,53.01
2022-09-09T11:00:48.946Z,50.98
2022-09-09T11:03:56.741Z,51.59
2022-09-09T11:06:59.885Z,51.53
2022-09-09T11:10:04.755Z,52.02
2022-09-09T11:13:13.321Z,50.91
2022-09-09T11:16:53.816Z,50.03
2022-09-09T11:19:56.208Z,51.50
2022-09-09T11:22:58.126Z,51.87
2022-09-09T11:26:04.841Z,52.78
2022-09-09T11:29:30.569Z,50.19
2022-09-09T11:33:25.943Z,53.36
2022-09-09T11:36:46.036Z,51.84
2022-09-09T11:40:29.408Z,50.49
2022-09-09T11:43:43.018Z,51.42
2022-09-09T11:46:53.489Z,50.64
2022-09-09T11:49:55.247Z,53.58
2022-09-09T11:53:21.430Z,50.48
2022-09-09T11:56:45.056Z,52.26
2022-09-09T11:59:56.207Z,53.19
2022-09-09T12:02:58.140Z,54.07
2022-09-09T12:06:00.999Z,52.89
2022-09-09T12:09:16.667Z,50.99
2022-09-09T12:12:30.390Z,51.34
2022-09-09T12:15:32.673Z,51.35
2022-09-09T12:18:40.713Z,50.15
2022-09-09T12:22:32.092Z,49.03
2022-09-09T12:25:54.406Z,49.01
2022-09-09T12:29:08.510Z,51.09
2022-09-09T12:32:21.945Z,51.35
2022-09-09T12:35:27.779Z,50.24
2022-09-09T12:38:42.642Z,49.04
2022-09-09T12:41:57.931Z,50.96
2022-09-09T12:45:02.350Z,50.89
2022-09-09T12:48:09.778Z,51.26
2022-09-09T12:51:26.857Z,50.59
2022-09-09T12:54:31.087Z,51.53
2022-09-09T12:57:37.941Z,51.02
2022-09-09T13:00:53.951Z,50.74
2022-09-09T13:03:56.856Z,51.53
2022-09-09T13:07:11.203Z,50.80
2022-09-09T13:10:36.190Z,49.13
2022-09-09T13:13:41.990Z,49.01
2022-09-09T13:16:44.018Z,52.28
2022-09-09T13:19:51.545Z,52.96
2022-09-09T13:22:55.460Z,52.47
2022-09-09T13:26:02.402Z,52.37
2022-09-09T13:29:20.368Z,51.91
2022-09-09T13:32:23.388Z,52.45
2022-09-09T13:35:26.392Z,51.18
2022-09-09T13:38:30.905Z,51.91
2022-09-09T13:41:38.171Z,51.09
2022-09-09T13:44:41.164Z,51.15
2022-09-09T13:47:43.280Z,51.29
2022-09-09T13:50:55.634Z,51.20
2022-09-09T13:53:58.853Z,52.03
2022-09-09T13:57:02.270Z,52.11
2022-09-09T14:00:05.785Z,51.81
2022-09-09T14:03:09.318Z,52.47
2022-09-09T14:06:12.026Z,50.69
2022-09-09T14:09:16.732Z,51.69
2022-09-09T14:12:19.511Z,51.24
2022-09-09T14:15:23.071Z,51.14
2022-09-09T14:18:26.566Z,51.17
2022-09-09T14:21:28.830Z,51.56
2022-09-09T14:24:30.656Z,51.79
2022-09-09T14:27:33.828Z,51.40
2022-09-09T14:30:35.886Z,51.79
2022-09-09T14:33:38.235Z,51.24
2022-09-09T14:36:40.186Z,50.74
2022-09-09T14:39:45.419Z,52.30
2022-09-09T14:42:49.844Z,51.94
2022-09-09T14:45:52.608Z,52.95
2022-09-09T14:51:56.894Z,53.74
2022-09-09T14:54:58.970Z,52.88
2022-09-09T14:58:01.307Z,53.07
2022-09-09T15:01:07.869Z,51.75
2022-09-09T15:04:13.090Z,53.51
2022-09-09T15:07:15.040Z,52.58
2022-09-09T15:10:18.303Z,53.47
2022-09-09T15:13:20.266Z,53.41
2022-09-09T15:16:25.418Z,53.76
2022-09-09T15:19:27.289Z,54.93
2022-09-09T15:22:29.202Z,55.40
2022-09-09T15:25:31.151Z,55.85
2022-09-09T15:28:41.563Z,55.86
2022-09-09T15:31:43.517Z,56.30
2022-09-09T15:34:45.281Z,56.77
2022-09-09T15:37:47.238Z,57.95
2022-09-09T15:40:55.678Z,59.36
2022-09-09T15:43:57.981Z,59.09
2022-09-09T15:47:00.205Z,59.64
2022-09-09T15:50:02.433Z,58.70
2022-09-09T15:53:04.725Z,59.25
2022-09-09T15:56:09.760Z,58.28
2022-09-09T15:59:12.635Z,59.11
2022-09-09T16:02:14.489Z,59.29
2022-09-09T16:05:16.961Z,59.89
2022-09-09T16:08:19.495Z,59.79
2022-09-09T16:11:26.090Z,60.11
2022-09-09T16:14:28.538Z,61.22
2022-09-09T16:17:30.443Z,61.55
2022-09-09T16:20:34.509Z,61.67
2022-09-09T16:23:36.665Z,62.47
2022-09-09T16:26:41.019Z,63.08
2022-09-09T16:29:42.998Z,63.50
2022-09-09T16:32:45.202Z,63.59
2022-09-09T16:35:47.266Z,64.41
2022-09-09T16:38:54.883Z,65.25
2022-09-09T16:41:58.538Z,65.21
2022-09-09T16:45:00.382Z,65.60
2022-09-09T16:48:02.542Z,66.27
2022-09-09T16:51:07.084Z,66.86
2022-09-09T16:54:10.656Z,67.35
2022-09-09T16:57:12.515Z,66.94
2022-09-09T17:00:14.588Z,67.47
2022-09-09T17:03:17.437Z,67.98
2022-09-09T17:06:19.392Z,68.47
2022-09-09T17:09:22.517Z,68.72
2022-09-09T17:12:24.401Z,69.56
2022-09-09T17:15:26.541Z,69.14
2022-09-09T17:18:29.364Z,69.04
2022-09-09T17:21:32.568Z,69.73
2022-09-09T17:24:35.521Z,69.76
2022-09-09T17:27:37.528Z,69.74
2022-09-09T17:30:39.707Z,69.28
2022-09-09T17:33:44.026Z,70.00
2022-09-09T17:36:46.057Z,70.65
2022-09-09T17:39:48.106Z,70.14
2022-09-09T17:42:50.301Z,70.44
2022-09-09T17:45:52.252Z,71.22
2022-09-09T17:48:57.997Z,72.41
2022-09-09T17:51:59.872Z,72.60
2022-09-09T17:55:03.476Z,72.99
2022-09-09T17:58:06.674Z,73.10
2022-09-09T18:01:14.301Z,73.57
2022-09-09T18:04:25.005Z,72.53
2022-09-09T18:07:27.287Z,72.68
2022-09-09T18:10:29.238Z,72.67
2022-09-09T18:13:31.294Z,73.85
2022-09-09T18:16:36.541Z,74.10
2022-09-09T18:19:38.841Z,73.12
2022-09-09T18:22:41.017Z,72.76
2022-09-09T18:25:43.619Z,72.79
2022-09-09T18:28:50.688Z,72.04
2022-09-09T18:31:54.483Z,71.34
2022-09-09T18:34:59.564Z,70.88
2022-09-09T18:38:01.825Z,70.95
2022-09-09T18:41:25.526Z,71.63
2022-09-09T18:44:30.946Z,70.70
2022-09-09T18:47:33.325Z,70.17
2022-09-09T18:50:35.580Z,69.95
2022-09-09T18:53:38.864Z,69.22
2022-09-09T18:56:42.104Z,68.78
2022-09-09T18:59:44.552Z,68.27
2022-09-09T19:02:54.076Z,68.19
2022-09-09T19:06:06.886Z,67.47
2022-09-09T19:09:17.329Z,67.77
2022-09-09T19:12:23.866Z,68.20
2022-09-09T19:15:27.059Z,69.12
2022-09-09T19:18:31.483Z,70.17
2022-09-09T19:21:37.436Z,70.92
2022-09-09T19:24:41.022Z,70.78
2022-09-09T19:27:43.555Z,71.65
2022-09-09T19:30:47.967Z,72.54
2022-09-09T19:33:51.152Z,71.81
2022-09-09T19:36:53.633Z,72.20
2022-09-09T19:39:55.834Z,72.64
2022-09-09T19:43:07.686Z,72.95
2022-09-09T19:46:11.747Z,73.93
2022-09-09T19:49:15.679Z,74.07
2022-09-09T19:52:18.120Z,73.98
2022-09-09T19:55:20.211Z,72.96
2022-09-09T19:58:22.203Z,71.86
2022-09-09T20:01:30.038Z,73.01
2022-09-09T20:04:32.118Z,73.04
2022-09-09T20:07:33.916Z,73.20
2022-09-09T20:10:35.690Z,73.46
2022-09-09T20:13:39.114Z,73.57
2022-09-09T20:16:41.485Z,74.11
2022-09-09T20:19:44.433Z,75.31
2022-09-09T20:22:47.149Z,75.53
2022-09-09T20:25:49.234Z,75.91
2022-09-09T20:28:53.586Z,75.95
2022-09-09T20:31:55.617Z,76.65
2022-09-09T20:34:58.219Z,76.65
2022-09-09T20:38:01.302Z,75.67
2022-09-09T20:41:04.618Z,76.31
2022-09-09T20:44:14.328Z,76.33
2022-09-09T20:47:16.977Z,75.91
2022-09-09T20:50:18.831Z,76.26
2022-09-09T20:53:21.256Z,76.43
2022-09-09T20:56:27.346Z,76.12
2022-09-09T20:59:31.434Z,76.31
2022-09-09T21:02:33.385Z,75.27
2022-09-09T21:05:35.330Z,75.94
2022-09-09T21:08:37.710Z,74.24
2022-09-09T21:11:39.835Z,73.68
2022-09-09T21:14:41.592Z,73.50
2022-09-09T21:17:43.422Z,72.18
2022-09-09T21:20:46.142Z,71.65
2022-09-09T21:23:54.877Z,72.32
2022-09-09T21:26:56.772Z,72.19
2022-09-09T21:29:58.633Z,71.88
2022-09-09T21:33:01.655Z,71.95
2022-09-09T21:36:07.207Z,71.92
2022-09-09T21:39:09.254Z,71.92
2022-09-09T21:42:11.051Z,71.80
2022-09-09T21:45:13.290Z,72.29
2022-09-09T21:48:16.606Z,71.38
2022-09-09T21:51:18.985Z,71.02
2022-09-09T21:54:20.905Z,71.74
2022-09-09T21:57:24.962Z,71.97
2022-09-09T22:00:27.020Z,72.09
2022-09-09T22:03:29.054Z,71.72
2022-09-09T22:06:30.884Z,71.81
2022-09-09T22:09:33.887Z,72.44
2022-09-09T22:12:36.702Z,72.62
2022-09-09T22:15:44.545Z,72.77
2022-09-09T22:18:53.821Z,72.80
2022-09-09T22:21:55.506Z,72.67
2022-09-09T22:24:57.259Z,73.17
2022-09-09T22:27:58.965Z,74.21
2022-09-09T22:31:01.074Z,74.63
2022-09-09T22:34:03.487Z,74.29
2022-09-09T22:37:06.002Z,74.98
2022-09-09T22:40:09.740Z,74.78
2022-09-09T22:43:16.797Z,75.82
2022-09-09T22:46:18.980Z,77.30
2022-09-09T22:49:20.720Z,78.37
2022-09-09T22:52:24.133Z,78.19
2022-09-09T22:55:26.852Z,79.17
2022-09-09T22:58:30.066Z,78.29
2022-09-09T23:01:32.226Z,78.32
2022-09-09T23:04:34.160Z,77.90
2022-09-09T23:07:36.776Z,77.72
2022-09-09T23:10:42.647Z,78.11
2022-09-09T23:13:50.186Z,77.68
2022-09-09T23:16:52.681Z,78.66
2022-09-09T23:19:56.391Z,78.63
2022-09-09T23:22:58.070Z,78.91
2022-09-09T23:26:07.180Z,78.52
2022-09-09T23:29:10.674Z,78.94
2022-09-09T23:32:12.316Z,79.58
2022-09-09T23:35:14.151Z,79.77
2022-09-09T23:38:17.013Z,80.48
2022-09-09T23:41:21.109Z,80.39
2022-09-09T23:44:23.390Z,81.07
2022-09-09T23:47:25.539Z,81.22
2022-09-09T23:50:27.479Z,82.25
2022-09-09T23:53:29.225Z,82.73
2022-09-09T23:56:37.841Z,84.23
2022-09-09T23:59:39.795Z,84.57
